Gainsborough, United Kingdom
Current Conditions -  °F | °C
As of 10:50 AM on Thursday 18 Dec 2014 (Local Time) from EGXP Reporting Station
Broken Clouds Broken Clouds  
Wind Chill: 55°   Ceiling: 1500
Heat Index: 55°   Visibility: 6mi
Dew Point: 54°   Wind: 24mph
Humidity: 94%   Direction: 230°SW
Pressure: 29.59"   Gusts: 36mph
Location:  53.38°N, 0.77°W
Report Text: EGXP 181050Z 23021G31KT 9999 BKN015 13/12 Q1002 WHT
Loading
Personal Weather Stations






























Interactive Weather Map New forecast layout! Learn more

10-Day Weather Forecast

Advertisements
Track Severe Weather on mobile